Time,TemperatureF,DewpointF,PressureIn,WindDirection,WindDirectionDegrees,WindSpeedMPH,WindSpeedGustMPH,Humidity,HourlyPrecipIn,Conditions,Clouds,dailyrainin,SolarRadiationWatts/m^2,SoftwareType,DateUTC
2013-03-20 00:02:00,42.0,27.0,-100.00,SSW,197,11.0,18.0,55,0.00,,,0.00,0.000000,,2013-03-20 07:02:00,
2013-03-20 00:12:00,42.0,27.0,-100.00,SSW,197,11.0,18.0,55,0.00,,,0.00,0.000000,,2013-03-20 07:12:00,
2013-03-20 00:22:00,42.0,27.0,-100.00,SSW,197,11.0,18.0,55,0.00,,,0.00,0.000000,,2013-03-20 07:22:00,
2013-03-20 00:52:00,42.0,25.0,-100.00,SSW,202,10.0,16.0,50,0.00,,,0.00,0.000000,,2013-03-20 07:52:00,
2013-03-20 01:02:00,42.0,25.0,-100.00,SSW,202,10.0,16.0,50,0.00,,,0.00,0.000000,,2013-03-20 08:02:00,
2013-03-20 01:12:00,42.0,25.0,-100.00,SSW,202,10.0,16.0,50,0.00,,,0.00,0.000000,,2013-03-20 08:12:00,
2013-03-20 01:22:00,42.0,25.0,-100.00,SSW,202,10.0,16.0,50,0.00,,,0.00,0.000000,,2013-03-20 08:22:00,
2013-03-20 01:52:00,43.0,25.0,-100.00,SSW,201,12.0,17.0,48,0.00,,,0.00,0.000000,,2013-03-20 08:52:00,
2013-03-20 02:02:00,43.0,25.0,-100.00,SSW,201,12.0,17.0,48,0.00,,,0.00,0.000000,,2013-03-20 09:02:00,
2013-03-20 02:12:00,43.0,25.0,-100.00,SSW,201,12.0,17.0,48,0.00,,,0.00,0.000000,,2013-03-20 09:12:00,
2013-03-20 02:22:00,43.0,25.0,-100.00,SSW,201,12.0,17.0,48,0.00,,,0.00,0.000000,,2013-03-20 09:22:00,
2013-03-20 02:53:00,44.0,27.0,-100.00,SSW,199,9.0,16.0,50,0.00,,,0.00,0.000000,,2013-03-20 09:53:00,
2013-03-20 03:03:00,44.0,27.0,-100.00,SSW,199,9.0,16.0,50,0.00,,,0.00,0.000000,,2013-03-20 10:03:00,
2013-03-20 03:12:00,44.0,27.0,-100.00,SSW,199,9.0,16.0,50,0.00,,,0.00,0.000000,,2013-03-20 10:12:00,
2013-03-20 03:22:00,44.0,27.0,-100.00,SSW,199,9.0,16.0,50,0.00,,,0.00,0.000000,,2013-03-20 10:22:00,
2013-03-20 03:53:00,41.0,22.0,-100.00,SSW,193,15.0,15.0,46,0.00,,,0.00,0.000000,,2013-03-20 10:53:00,
2013-03-20 04:02:00,41.0,22.0,-100.00,SSW,193,15.0,15.0,46,0.00,,,0.00,0.000000,,2013-03-20 11:02:00,
2013-03-20 04:12:00,41.0,22.0,-100.00,SSW,193,15.0,15.0,46,0.00,,,0.00,0.000000,,2013-03-20 11:12:00,
2013-03-20 04:21:00,41.0,22.0,-100.00,SSW,193,15.0,15.0,46,0.00,,,0.00,0.000000,,2013-03-20 11:21:00,
2013-03-20 04:52:00,45.0,25.0,-100.00,SSW,206,11.0,21.0,45,0.00,,,0.00,0.000000,,2013-03-20 11:52:00,
2013-03-20 05:02:00,45.0,25.0,-100.00,SSW,206,11.0,21.0,45,0.00,,,0.00,0.000000,,2013-03-20 12:02:00,
2013-03-20 05:12:00,45.0,25.0,-100.00,SSW,206,11.0,21.0,45,0.00,,,0.00,0.000000,,2013-03-20 12:12:00,
2013-03-20 05:22:00,45.0,25.0,-100.00,SSW,206,11.0,21.0,45,0.00,,,0.00,0.000000,,2013-03-20 12:22:00,
2013-03-20 05:52:00,43.0,23.0,-100.00,SSW,208,11.0,24.0,44,0.00,,,0.00,0.000000,,2013-03-20 12:52:00,
2013-03-20 06:02:00,43.0,23.0,-100.00,SSW,208,11.0,24.0,44,0.00,,,0.00,0.000000,,2013-03-20 13:02:00,
2013-03-20 06:12:00,43.0,23.0,-100.00,SSW,208,11.0,24.0,44,0.00,,,0.00,0.000000,,2013-03-20 13:12:00,
2013-03-20 06:22:00,43.0,23.0,-100.00,SSW,208,11.0,24.0,44,0.00,,,0.00,0.000000,,2013-03-20 13:22:00,
2013-03-20 06:53:00,45.0,24.0,-100.00,SSW,203,10.0,17.0,44,0.00,,,0.00,0.000000,,2013-03-20 13:53:00,
2013-03-20 07:02:00,45.0,24.0,-100.00,SSW,203,10.0,17.0,44,0.00,,,0.00,0.000000,,2013-03-20 14:02:00,
2013-03-20 07:12:00,45.0,24.0,-100.00,SSW,203,10.0,17.0,44,0.00,,,0.00,0.000000,,2013-03-20 14:12:00,
2013-03-20 07:22:00,45.0,24.0,-100.00,SSW,203,10.0,17.0,44,0.00,,,0.00,0.000000,,2013-03-20 14:22:00,
2013-03-20 07:52:00,43.0,22.0,-100.00,SSW,202,10.0,15.0,42,0.00,,,0.00,0.000000,,2013-03-20 14:52:00,
2013-03-20 08:02:00,43.0,22.0,-100.00,SSW,202,10.0,15.0,42,0.00,,,0.00,0.000000,,2013-03-20 15:02:00,
2013-03-20 08:12:00,43.0,22.0,-100.00,SSW,202,10.0,15.0,42,0.00,,,0.00,0.000000,,2013-03-20 15:12:00,
2013-03-20 08:22:00,43.0,22.0,-100.00,SSW,202,10.0,15.0,42,0.00,,,0.00,0.000000,,2013-03-20 15:22:00,
2013-03-20 08:53:00,44.0,19.0,-100.00,South,177,10.0,13.0,36,0.00,,,0.00,6.000000,,2013-03-20 15:53:00,
2013-03-20 09:02:00,44.0,19.0,-100.00,South,177,10.0,13.0,36,0.00,,,0.00,6.000000,,2013-03-20 16:02:00,
2013-03-20 09:12:00,44.0,19.0,-100.00,South,177,10.0,13.0,36,0.00,,,0.00,6.000000,,2013-03-20 16:12:00,
2013-03-20 09:23:00,44.0,19.0,-100.00,South,177,10.0,13.0,36,0.00,,,0.00,6.000000,,2013-03-20 16:23:00,
2013-03-20 09:53:00,49.0,17.0,-100.00,South,180,10.0,14.0,28,0.00,,,0.00,123.000000,,2013-03-20 16:53:00,
2013-03-20 10:03:00,49.0,17.0,-100.00,South,180,10.0,14.0,28,0.00,,,0.00,123.000000,,2013-03-20 17:03:00,
2013-03-20 10:12:00,49.0,17.0,-100.00,South,180,10.0,14.0,28,0.00,,,0.00,123.000000,,2013-03-20 17:12:00,
2013-03-20 10:21:00,49.0,17.0,-100.00,South,180,10.0,14.0,28,0.00,,,0.00,123.000000,,2013-03-20 17:21:00,
2013-03-20 10:53:00,52.0,17.0,-100.00,SW,216,8.0,13.0,25,0.00,,,0.00,230.000000,,2013-03-20 17:53:00,
2013-03-20 11:02:00,52.0,17.0,-100.00,SW,216,8.0,13.0,25,0.00,,,0.00,230.000000,,2013-03-20 18:02:00,
2013-03-20 11:12:00,52.0,17.0,-100.00,SW,216,8.0,13.0,25,0.00,,,0.00,230.000000,,2013-03-20 18:12:00,
2013-03-20 11:22:00,52.0,17.0,-100.00,SW,216,8.0,13.0,25,0.00,,,0.00,230.000000,,2013-03-20 18:22:00,
2013-03-20 11:52:00,55.0,17.0,-100.00,WSW,239,11.0,13.0,22,0.00,,,0.00,361.000000,,2013-03-20 18:52:00,
2013-03-20 12:02:00,55.0,17.0,-100.00,WSW,239,11.0,13.0,22,0.00,,,0.00,361.000000,,2013-03-20 19:02:00,
2013-03-20 12:12:00,55.0,17.0,-100.00,WSW,239,11.0,13.0,22,0.00,,,0.00,361.000000,,2013-03-20 19:12:00,
2013-03-20 12:22:00,55.0,17.0,-100.00,WSW,239,11.0,13.0,22,0.00,,,0.00,361.000000,,2013-03-20 19:22:00,
2013-03-20 12:53:00,59.0,21.0,-100.00,WSW,247,5.0,21.0,23,0.00,,,0.00,565.000000,,2013-03-20 19:53:00,
2013-03-20 13:02:00,59.0,21.0,-100.00,WSW,247,5.0,21.0,23,0.00,,,0.00,565.000000,,2013-03-20 20:02:00,
2013-03-20 13:12:00,59.0,21.0,-100.00,WSW,247,5.0,21.0,23,0.00,,,0.00,565.000000,,2013-03-20 20:12:00,
2013-03-20 13:22:00,59.0,21.0,-100.00,WSW,247,5.0,21.0,23,0.00,,,0.00,565.000000,,2013-03-20 20:22:00,
2013-03-20 13:53:00,57.0,21.0,-100.00,NW,304,9.0,20.0,24,0.00,,,0.00,1063.000000,,2013-03-20 20:53:00,
2013-03-20 14:02:00,57.0,21.0,-100.00,NW,304,9.0,20.0,24,0.00,,,0.00,1063.000000,,2013-03-20 21:02:00,
2013-03-20 14:12:00,57.0,21.0,-100.00,NW,304,9.0,20.0,24,0.00,,,0.00,1063.000000,,2013-03-20 21:12:00,
2013-03-20 14:22:00,57.0,21.0,-100.00,NW,304,9.0,20.0,24,0.00,,,0.00,1063.000000,,2013-03-20 21:22:00,
2013-03-20 14:53:00,60.0,27.0,-100.00,West,275,17.0,19.0,28,0.00,,,0.00,546.000000,,2013-03-20 21:53:00,
2013-03-20 15:03:00,60.0,27.0,-100.00,West,275,17.0,19.0,28,0.00,,,0.00,546.000000,,2013-03-20 22:03:00,
2013-03-20 15:12:00,60.0,27.0,-100.00,West,275,17.0,19.0,28,0.00,,,0.00,546.000000,,2013-03-20 22:12:00,
2013-03-20 15:23:00,60.0,27.0,-100.00,West,275,17.0,19.0,28,0.00,,,0.00,546.000000,,2013-03-20 22:23:00,
2013-03-20 15:52:00,56.0,18.0,-100.00,SSW,193,13.0,28.0,22,0.00,,,0.00,478.000000,,2013-03-20 22:52:00,
2013-03-20 16:02:00,56.0,18.0,-100.00,SSW,193,13.0,28.0,22,0.00,,,0.00,478.000000,,2013-03-20 23:02:00,
2013-03-20 16:53:00,60.0,25.0,-100.00,WSW,244,13.0,21.0,26,0.00,,,0.00,568.000000,,2013-03-20 23:53:00,
2013-03-20 17:02:00,60.0,25.0,-100.00,WSW,244,13.0,21.0,26,0.00,,,0.00,568.000000,,2013-03-21 00:02:00,
2013-03-20 17:12:00,60.0,25.0,-100.00,WSW,244,13.0,21.0,26,0.00,,,0.00,568.000000,,2013-03-21 00:12:00,
2013-03-20 17:22:00,60.0,25.0,-100.00,WSW,244,13.0,21.0,26,0.00,,,0.00,568.000000,,2013-03-21 00:22:00,
2013-03-20 17:52:00,57.0,24.0,-100.00,SW,228,7.0,23.0,28,0.00,,,0.00,657.000000,,2013-03-21 00:52:00,
2013-03-20 18:02:00,57.0,24.0,-100.00,SW,228,7.0,23.0,28,0.00,,,0.00,657.000000,,2013-03-21 01:02:00,
2013-03-20 18:11:00,57.0,24.0,-100.00,SW,228,7.0,23.0,28,0.00,,,0.00,657.000000,,2013-03-21 01:11:00,
2013-03-20 18:22:00,57.0,24.0,-100.00,SW,228,7.0,23.0,28,0.00,,,0.00,657.000000,,2013-03-21 01:22:00,
2013-03-20 18:52:00,56.0,31.0,-100.00,SSW,194,8.0,18.0,39,0.00,,,0.00,234.000000,,2013-03-21 01:52:00,
2013-03-20 19:02:00,56.0,31.0,-100.00,SSW,194,8.0,18.0,39,0.00,,,0.00,234.000000,,2013-03-21 02:02:00,
2013-03-20 19:12:00,56.0,31.0,-100.00,SSW,194,8.0,18.0,39,0.00,,,0.00,234.000000,,2013-03-21 02:12:00,
2013-03-20 19:22:00,56.0,31.0,-100.00,SSW,194,8.0,18.0,39,0.00,,,0.00,234.000000,,2013-03-21 02:22:00,
2013-03-20 20:02:00,52.0,36.0,-100.00,WSW,251,7.0,28.0,54,0.00,,,0.00,114.000000,,2013-03-21 03:02:00,
2013-03-20 20:12:00,52.0,36.0,-100.00,WSW,251,7.0,28.0,54,0.00,,,0.00,114.000000,,2013-03-21 03:12:00,
2013-03-20 20:21:00,52.0,36.0,-100.00,WSW,251,7.0,28.0,54,0.00,,,0.00,114.000000,,2013-03-21 03:21:00,
2013-03-20 20:53:00,47.0,30.0,-100.00,SE,139,0.0,15.0,52,0.00,,,0.00,29.000000,,2013-03-21 03:53:00,
2013-03-20 21:02:00,47.0,30.0,-100.00,SE,139,0.0,15.0,52,0.00,,,0.00,29.000000,,2013-03-21 04:02:00,
2013-03-20 21:12:00,47.0,30.0,-100.00,SE,139,0.0,15.0,52,0.00,,,0.00,29.000000,,2013-03-21 04:12:00,
2013-03-20 21:22:00,47.0,30.0,-100.00,SE,139,0.0,15.0,52,0.00,,,0.00,29.000000,,2013-03-21 04:22:00,
2013-03-20 21:53:00,44.0,23.0,-100.00,SSW,210,0.0,7.0,44,0.00,,,0.00,0.000000,,2013-03-21 04:53:00,
2013-03-20 22:02:00,44.0,23.0,-100.00,SSW,210,0.0,7.0,44,0.00,,,0.00,0.000000,,2013-03-21 05:02:00,
2013-03-20 22:12:00,44.0,23.0,-100.00,SSW,210,0.0,7.0,44,0.00,,,0.00,0.000000,,2013-03-21 05:12:00,
2013-03-20 22:22:00,44.0,23.0,-100.00,SSW,210,0.0,7.0,44,0.00,,,0.00,0.000000,,2013-03-21 05:22:00,
2013-03-20 22:52:00,43.0,27.0,-100.00,SSE,152,4.0,7.0,52,0.00,,,0.00,0.000000,,2013-03-21 05:52:00,
2013-03-20 23:02:00,43.0,27.0,-100.00,SSE,152,4.0,7.0,52,0.00,,,0.00,0.000000,,2013-03-21 06:02:00,
2013-03-20 23:12:00,43.0,27.0,-100.00,SSE,152,4.0,7.0,52,0.00,,,0.00,0.000000,,2013-03-21 06:12:00,
2013-03-20 23:22:00,43.0,27.0,-100.00,SSE,152,4.0,7.0,52,0.00,,,0.00,0.000000,,2013-03-21 06:22:00,
2013-03-20 23:52:00,39.0,27.0,-100.00,SSE,148,6.0,6.0,63,0.00,,,0.00,0.000000,,2013-03-21 06:52:00,